Terminal Aerodrome Forecast
Issued by NWS

Home | Current Version | Previous Version | Text Only | Print | Product List | Glossary Off
Versions: 1 2 3 4 5 6 7 8 9 10 11 12 13 14 15 16 17

000
FTUS43 KFGF 191125
TAFBJI
TAF
KBJI 191125Z 1912/2012 01008KT P6SM BKN200
     FM200200 04010KT P6SM OVC060
     FM200300 03009KT P6SM -SN OVC045
     FM200400 03008KT 5SM -SN OVC030
     FM200600 02007KT 3SM -SN OVC015
     FM201000 02006KT 2SM -SN OVC010=

USA.gov is the U.S. government's official web portal to all federal, state and local government web resources and services.